sensor_id;sensor_type;location;lat;lon;timestamp;temperature;humidity
21019;DHT22;10667;51.056;3.732;2023-02-02T00:00:54;10.00;99.90
21019;DHT22;10667;51.056;3.732;2023-02-02T00:03:19;10.10;99.90
21019;DHT22;10667;51.056;3.732;2023-02-02T00:05:51;10.00;99.90
21019;DHT22;10667;51.056;3.732;2023-02-02T00:08:18;9.90;99.90
21019;DHT22;10667;51.056;3.732;2023-02-02T00:10:45;9.90;99.90
21019;DHT22;10667;51.056;3.732;2023-02-02T00:13:11;10.00;99.90
21019;DHT22;10667;51.056;3.732;2023-02-02T00:15:38;9.90;99.90
21019;DHT22;10667;51.056;3.732;2023-02-02T00:18:04;9.90;99.90
21019;DHT22;10667;51.056;3.732;2023-02-02T00:20:31;9.90;99.90
21019;DHT22;10667;51.056;3.732;2023-02-02T00:22:59;9.90;99.90
21019;DHT22;10667;51.056;3.732;2023-02-02T00:25:25;9.90;99.90
21019;DHT22;10667;51.056;3.732;2023-02-02T00:27:51;10.00;99.90
21019;DHT22;10667;51.056;3.732;2023-02-02T00:30:16;10.00;99.90
21019;DHT22;10667;51.056;3.732;2023-02-02T00:32:42;10.00;99.90
21019;DHT22;10667;51.056;3.732;2023-02-02T00:35:08;10.10;99.90
21019;DHT22;10667;51.056;3.732;2023-02-02T00:37:34;10.00;99.90
21019;DHT22;10667;51.056;3.732;2023-02-02T00:40:00;9.90;99.90
21019;DHT22;10667;51.056;3.732;2023-02-02T00:42:26;9.80;99.90
21019;DHT22;10667;51.056;3.732;2023-02-02T00:44:52;10.00;99.90
21019;DHT22;10667;51.056;3.732;2023-02-02T00:47:36;9.80;99.90
21019;DHT22;10667;51.056;3.732;2023-02-02T00:50:01;9.80;99.90
21019;DHT22;10667;51.056;3.732;2023-02-02T00:52:27;9.80;99.90
21019;DHT22;10667;51.056;3.732;2023-02-02T00:54:53;9.70;99.90
21019;DHT22;10667;51.056;3.732;2023-02-02T00:57:18;9.70;99.90
21019;DHT22;10667;51.056;3.732;2023-02-02T00:59:44;9.70;99.90
21019;DHT22;10667;51.056;3.732;2023-02-02T01:02:11;9.70;99.90
21019;DHT22;10667;51.056;3.732;2023-02-02T01:04:36;9.80;99.90
21019;DHT22;10667;51.056;3.732;2023-02-02T01:07:02;9.80;99.90
21019;DHT22;10667;51.056;3.732;2023-02-02T01:09:28;9.80;99.90
21019;DHT22;10667;51.056;3.732;2023-02-02T01:11:54;9.70;99.90
21019;DHT22;10667;51.056;3.732;2023-02-02T01:14:19;9.50;99.90
21019;DHT22;10667;51.056;3.732;2023-02-02T01:16:46;9.50;99.90
21019;DHT22;10667;51.056;3.732;2023-02-02T01:19:12;9.60;99.90
21019;DHT22;10667;51.056;3.732;2023-02-02T01:21:38;9.70;99.90
21019;DHT22;10667;51.056;3.732;2023-02-02T01:24:04;9.70;99.90
21019;DHT22;10667;51.056;3.732;2023-02-02T01:26:30;9.70;99.90
21019;DHT22;10667;51.056;3.732;2023-02-02T01:28:56;9.70;99.90
21019;DHT22;10667;51.056;3.732;2023-02-02T01:31:22;9.90;99.90
21019;DHT22;10667;51.056;3.732;2023-02-02T01:33:48;9.90;99.90
21019;DHT22;10667;51.056;3.732;2023-02-02T01:36:19;9.70;99.90
21019;DHT22;10667;51.056;3.732;2023-02-02T01:38:46;9.80;99.90
21019;DHT22;10667;51.056;3.732;2023-02-02T01:41:18;9.80;99.90
21019;DHT22;10667;51.056;3.732;2023-02-02T01:46:15;10.00;99.90
21019;DHT22;10667;51.056;3.732;2023-02-02T01:48:45;9.80;99.90
21019;DHT22;10667;51.056;3.732;2023-02-02T01:51:15;9.80;99.90
21019;DHT22;10667;51.056;3.732;2023-02-02T01:53:43;9.70;99.90
21019;DHT22;10667;51.056;3.732;2023-02-02T01:56:13;9.70;99.90
21019;DHT22;10667;51.056;3.732;2023-02-02T01:58:40;9.60;99.90
21019;DHT22;10667;51.056;3.732;2023-02-02T02:01:07;9.60;99.90
21019;DHT22;10667;51.056;3.732;2023-02-02T02:03:35;9.60;99.90
21019;DHT22;10667;51.056;3.732;2023-02-02T02:06:16;9.80;99.90
21019;DHT22;10667;51.056;3.732;2023-02-02T02:08:55;9.80;99.90
21019;DHT22;10667;51.056;3.732;2023-02-02T02:11:22;9.70;99.90
21019;DHT22;10667;51.056;3.732;2023-02-02T02:13:49;9.80;99.90
21019;DHT22;10667;51.056;3.732;2023-02-02T02:20:24;9.50;99.90
21019;DHT22;10667;51.056;3.732;2023-02-02T02:34:50;10.10;99.90
21019;DHT22;10667;51.056;3.732;2023-02-02T02:37:21;10.00;99.90
21019;DHT22;10667;51.056;3.732;2023-02-02T02:40:02;9.90;99.90
21019;DHT22;10667;51.056;3.732;2023-02-02T02:42:34;9.80;99.90
21019;DHT22;10667;51.056;3.732;2023-02-02T02:45:02;9.80;99.90
21019;DHT22;10667;51.056;3.732;2023-02-02T02:47:29;9.80;99.90
21019;DHT22;10667;51.056;3.732;2023-02-02T02:49:56;9.80;99.90
21019;DHT22;10667;51.056;3.732;2023-02-02T02:52:21;9.90;99.90
21019;DHT22;10667;51.056;3.732;2023-02-02T02:54:50;9.90;99.90
21019;DHT22;10667;51.056;3.732;2023-02-02T03:05:53;9.60;99.90
21019;DHT22;10667;51.056;3.732;2023-02-02T03:10:57;9.40;99.90
21019;DHT22;10667;51.056;3.732;2023-02-02T03:13:24;9.40;99.90
21019;DHT22;10667;51.056;3.732;2023-02-02T03:15:51;9.40;99.90
21019;DHT22;10667;51.056;3.732;2023-02-02T03:18:20;9.40;99.90
21019;DHT22;10667;51.056;3.732;2023-02-02T03:20:47;9.40;99.90
21019;DHT22;10667;51.056;3.732;2023-02-02T03:23:13;9.40;99.90
21019;DHT22;10667;51.056;3.732;2023-02-02T03:25:38;9.40;99.90
21019;DHT22;10667;51.056;3.732;2023-02-02T03:28:05;9.50;99.90
21019;DHT22;10667;51.056;3.732;2023-02-02T03:30:31;9.50;99.90
21019;DHT22;10667;51.056;3.732;2023-02-02T03:32:57;9.50;99.90
21019;DHT22;10667;51.056;3.732;2023-02-02T03:35:23;9.40;99.90
21019;DHT22;10667;51.056;3.732;2023-02-02T03:37:50;9.40;99.90
21019;DHT22;10667;51.056;3.732;2023-02-02T03:40:16;9.50;99.90
21019;DHT22;10667;51.056;3.732;2023-02-02T03:42:42;9.50;99.90
21019;DHT22;10667;51.056;3.732;2023-02-02T03:45:08;9.60;99.90
21019;DHT22;10667;51.056;3.732;2023-02-02T03:47:34;9.70;99.90
21019;DHT22;10667;51.056;3.732;2023-02-02T03:50:00;9.40;99.90
21019;DHT22;10667;51.056;3.732;2023-02-02T03:52:26;9.40;99.90
21019;DHT22;10667;51.056;3.732;2023-02-02T03:54:51;9.30;99.90
21019;DHT22;10667;51.056;3.732;2023-02-02T03:57:17;9.30;99.90
21019;DHT22;10667;51.056;3.732;2023-02-02T03:59:43;9.30;99.90
21019;DHT22;10667;51.056;3.732;2023-02-02T04:02:09;9.40;99.90
21019;DHT22;10667;51.056;3.732;2023-02-02T04:04:35;9.50;99.90
21019;DHT22;10667;51.056;3.732;2023-02-02T04:07:00;9.60;99.90
21019;DHT22;10667;51.056;3.732;2023-02-02T04:09:26;9.60;99.90
21019;DHT22;10667;51.056;3.732;2023-02-02T04:11:53;9.60;99.90
21019;DHT22;10667;51.056;3.732;2023-02-02T04:14:19;9.60;99.90
21019;DHT22;10667;51.056;3.732;2023-02-02T04:16:44;9.60;99.90
21019;DHT22;10667;51.056;3.732;2023-02-02T04:19:10;9.70;99.90
21019;DHT22;10667;51.056;3.732;2023-02-02T04:21:37;9.60;99.90
21019;DHT22;10667;51.056;3.732;2023-02-02T04:24:04;9.60;99.90
21019;DHT22;10667;51.056;3.732;2023-02-02T04:26:30;9.70;99.90
21019;DHT22;10667;51.056;3.732;2023-02-02T04:28:56;9.70;99.90
21019;DHT22;10667;51.056;3.732;2023-02-02T04:31:21;9.70;99.90
21019;DHT22;10667;51.056;3.732;2023-02-02T04:33:47;9.70;99.90
21019;DHT22;10667;51.056;3.732;2023-02-02T04:36:13;9.80;99.90
21019;DHT22;10667;51.056;3.732;2023-02-02T04:38:39;9.80;99.90
21019;DHT22;10667;51.056;3.732;2023-02-02T04:41:06;9.80;99.90
21019;DHT22;10667;51.056;3.732;2023-02-02T04:43:33;9.90;99.90
21019;DHT22;10667;51.056;3.732;2023-02-02T04:45:59;9.80;99.90
21019;DHT22;10667;51.056;3.732;2023-02-02T04:48:25;9.70;99.90
21019;DHT22;10667;51.056;3.732;2023-02-02T04:51:00;9.70;99.90
21019;DHT22;10667;51.056;3.732;2023-02-02T04:53:26;9.80;99.90
21019;DHT22;10667;51.056;3.732;2023-02-02T04:55:52;9.80;99.90
21019;DHT22;10667;51.056;3.732;2023-02-02T04:58:18;9.70;99.90
21019;DHT22;10667;51.056;3.732;2023-02-02T05:00:44;9.80;99.90
21019;DHT22;10667;51.056;3.732;2023-02-02T05:03:09;9.80;99.90
21019;DHT22;10667;51.056;3.732;2023-02-02T05:05:35;9.80;99.90
21019;DHT22;10667;51.056;3.732;2023-02-02T05:08:01;9.80;99.90
21019;DHT22;10667;51.056;3.732;2023-02-02T05:10:27;9.80;99.90
21019;DHT22;10667;51.056;3.732;2023-02-02T05:12:53;9.80;99.90
21019;DHT22;10667;51.056;3.732;2023-02-02T05:15:19;9.70;99.90
21019;DHT22;10667;51.056;3.732;2023-02-02T05:17:48;9.70;99.90
21019;DHT22;10667;51.056;3.732;2023-02-02T05:20:14;9.50;99.90
21019;DHT22;10667;51.056;3.732;2023-02-02T05:22:41;9.40;99.90
21019;DHT22;10667;51.056;3.732;2023-02-02T05:25:07;9.60;99.90
21019;DHT22;10667;51.056;3.732;2023-02-02T05:27:33;9.50;99.90
21019;DHT22;10667;51.056;3.732;2023-02-02T05:29:59;9.50;99.90
21019;DHT22;10667;51.056;3.732;2023-02-02T05:32:24;9.40;99.90
21019;DHT22;10667;51.056;3.732;2023-02-02T05:34:50;9.60;99.90
21019;DHT22;10667;51.056;3.732;2023-02-02T05:37:16;9.60;99.90
21019;DHT22;10667;51.056;3.732;2023-02-02T05:39:42;9.80;99.90
21019;DHT22;10667;51.056;3.732;2023-02-02T05:42:07;9.70;99.90
21019;DHT22;10667;51.056;3.732;2023-02-02T05:44:33;9.80;99.90
21019;DHT22;10667;51.056;3.732;2023-02-02T05:46:59;9.70;99.90
21019;DHT22;10667;51.056;3.732;2023-02-02T05:49:24;9.60;99.90
21019;DHT22;10667;51.056;3.732;2023-02-02T05:51:55;9.60;99.90
21019;DHT22;10667;51.056;3.732;2023-02-02T05:54:22;9.70;99.90
21019;DHT22;10667;51.056;3.732;2023-02-02T05:56:49;9.70;99.90
21019;DHT22;10667;51.056;3.732;2023-02-02T05:59:16;9.60;99.90
21019;DHT22;10667;51.056;3.732;2023-02-02T06:01:46;9.50;99.90
21019;DHT22;10667;51.056;3.732;2023-02-02T06:04:12;9.50;99.90
21019;DHT22;10667;51.056;3.732;2023-02-02T06:06:38;9.30;99.90
21019;DHT22;10667;51.056;3.732;2023-02-02T06:09:05;9.30;99.90
21019;DHT22;10667;51.056;3.732;2023-02-02T06:11:32;9.30;99.90
21019;DHT22;10667;51.056;3.732;2023-02-02T06:13:57;9.30;99.90
21019;DHT22;10667;51.056;3.732;2023-02-02T06:16:23;9.40;99.90
21019;DHT22;10667;51.056;3.732;2023-02-02T06:18:50;9.50;99.90
21019;DHT22;10667;51.056;3.732;2023-02-02T06:21:16;9.40;99.90
21019;DHT22;10667;51.056;3.732;2023-02-02T06:23:41;9.50;99.90
21019;DHT22;10667;51.056;3.732;2023-02-02T06:26:14;9.50;99.90
21019;DHT22;10667;51.056;3.732;2023-02-02T06:28:41;9.50;99.90
21019;DHT22;10667;51.056;3.732;2023-02-02T06:31:09;9.50;99.90
21019;DHT22;10667;51.056;3.732;2023-02-02T06:33:35;9.50;99.90
21019;DHT22;10667;51.056;3.732;2023-02-02T06:36:02;9.60;99.90
21019;DHT22;10667;51.056;3.732;2023-02-02T06:38:28;9.60;99.90
21019;DHT22;10667;51.056;3.732;2023-02-02T06:40:54;9.60;99.90
21019;DHT22;10667;51.056;3.732;2023-02-02T06:43:23;9.60;99.90
21019;DHT22;10667;51.056;3.732;2023-02-02T06:45:48;9.70;99.90
21019;DHT22;10667;51.056;3.732;2023-02-02T06:48:14;9.80;99.90
21019;DHT22;10667;51.056;3.732;2023-02-02T06:50:40;9.70;99.90
21019;DHT22;10667;51.056;3.732;2023-02-02T06:53:05;9.70;99.90
21019;DHT22;10667;51.056;3.732;2023-02-02T06:55:31;9.70;99.90
21019;DHT22;10667;51.056;3.732;2023-02-02T06:57:58;9.70;99.90
21019;DHT22;10667;51.056;3.732;2023-02-02T07:00:25;9.80;99.90
21019;DHT22;10667;51.056;3.732;2023-02-02T07:02:52;9.80;99.90
21019;DHT22;10667;51.056;3.732;2023-02-02T07:05:17;9.80;99.90
21019;DHT22;10667;51.056;3.732;2023-02-02T07:07:44;9.70;99.90
21019;DHT22;10667;51.056;3.732;2023-02-02T07:10:11;9.70;99.90
21019;DHT22;10667;51.056;3.732;2023-02-02T07:12:37;9.70;99.90
21019;DHT22;10667;51.056;3.732;2023-02-02T07:15:03;9.70;99.90
21019;DHT22;10667;51.056;3.732;2023-02-02T07:17:28;9.80;99.90
21019;DHT22;10667;51.056;3.732;2023-02-02T07:19:54;9.70;99.90
21019;DHT22;10667;51.056;3.732;2023-02-02T07:22:21;9.70;99.90
21019;DHT22;10667;51.056;3.732;2023-02-02T07:24:46;9.50;99.90
21019;DHT22;10667;51.056;3.732;2023-02-02T07:27:12;9.50;99.90
21019;DHT22;10667;51.056;3.732;2023-02-02T07:29:38;9.60;99.90
21019;DHT22;10667;51.056;3.732;2023-02-02T07:32:04;9.60;99.90
21019;DHT22;10667;51.056;3.732;2023-02-02T07:34:30;9.60;99.90
21019;DHT22;10667;51.056;3.732;2023-02-02T07:36:56;9.70;99.90
21019;DHT22;10667;51.056;3.732;2023-02-02T07:39:22;9.70;99.90
21019;DHT22;10667;51.056;3.732;2023-02-02T07:41:48;9.60;99.90
21019;DHT22;10667;51.056;3.732;2023-02-02T07:44:14;9.70;99.90
21019;DHT22;10667;51.056;3.732;2023-02-02T07:46:44;9.60;99.90
21019;DHT22;10667;51.056;3.732;2023-02-02T07:49:13;9.60;99.90
21019;DHT22;10667;51.056;3.732;2023-02-02T07:51:39;9.70;99.90
21019;DHT22;10667;51.056;3.732;2023-02-02T07:54:05;9.60;99.90
21019;DHT22;10667;51.056;3.732;2023-02-02T07:56:31;9.80;99.90
21019;DHT22;10667;51.056;3.732;2023-02-02T07:58:57;9.80;99.90
21019;DHT22;10667;51.056;3.732;2023-02-02T08:01:23;9.90;99.90
21019;DHT22;10667;51.056;3.732;2023-02-02T08:03:51;9.80;99.90
21019;DHT22;10667;51.056;3.732;2023-02-02T08:06:26;9.70;99.90
21019;DHT22;10667;51.056;3.732;2023-02-02T08:08:57;9.60;99.90
21019;DHT22;10667;51.056;3.732;2023-02-02T08:11:24;9.70;99.90
21019;DHT22;10667;51.056;3.732;2023-02-02T08:13:53;9.70;99.90
21019;DHT22;10667;51.056;3.732;2023-02-02T08:16:19;9.70;99.90
21019;DHT22;10667;51.056;3.732;2023-02-02T08:18:46;9.80;99.90
21019;DHT22;10667;51.056;3.732;2023-02-02T08:21:12;9.60;99.90
21019;DHT22;10667;51.056;3.732;2023-02-02T08:23:40;9.60;99.90
21019;DHT22;10667;51.056;3.732;2023-02-02T08:26:09;9.50;99.90
21019;DHT22;10667;51.056;3.732;2023-02-02T08:28:36;9.40;99.90
21019;DHT22;10667;51.056;3.732;2023-02-02T08:33:38;9.40;99.90
21019;DHT22;10667;51.056;3.732;2023-02-02T08:36:06;9.50;99.90
21019;DHT22;10667;51.056;3.732;2023-02-02T08:38:32;9.50;99.90
21019;DHT22;10667;51.056;3.732;2023-02-02T08:41:06;9.50;99.90
21019;DHT22;10667;51.056;3.732;2023-02-02T08:43:32;9.40;99.90
21019;DHT22;10667;51.056;3.732;2023-02-02T08:45:57;9.40;99.90
21019;DHT22;10667;51.056;3.732;2023-02-02T08:48:23;9.40;99.90
21019;DHT22;10667;51.056;3.732;2023-02-02T08:50:56;9.40;99.90
21019;DHT22;10667;51.056;3.732;2023-02-02T08:53:22;9.40;99.90
21019;DHT22;10667;51.056;3.732;2023-02-02T08:56:00;9.50;99.90
21019;DHT22;10667;51.056;3.732;2023-02-02T08:58:26;9.40;99.90
21019;DHT22;10667;51.056;3.732;2023-02-02T09:00:53;9.50;99.90
21019;DHT22;10667;51.056;3.732;2023-02-02T09:03:18;9.50;99.90
21019;DHT22;10667;51.056;3.732;2023-02-02T09:05:44;9.50;99.90
21019;DHT22;10667;51.056;3.732;2023-02-02T09:08:10;9.70;99.90
21019;DHT22;10667;51.056;3.732;2023-02-02T09:10:36;9.80;99.90
21019;DHT22;10667;51.056;3.732;2023-02-02T09:13:02;9.80;99.90
21019;DHT22;10667;51.056;3.732;2023-02-02T09:15:29;9.70;99.90
21019;DHT22;10667;51.056;3.732;2023-02-02T09:17:55;9.80;99.90
21019;DHT22;10667;51.056;3.732;2023-02-02T09:20:20;9.70;99.90
21019;DHT22;10667;51.056;3.732;2023-02-02T09:22:46;9.70;99.90
21019;DHT22;10667;51.056;3.732;2023-02-02T09:25:12;9.60;99.90
21019;DHT22;10667;51.056;3.732;2023-02-02T09:27:38;9.60;99.90
21019;DHT22;10667;51.056;3.732;2023-02-02T09:30:06;9.80;99.90
21019;DHT22;10667;51.056;3.732;2023-02-02T09:32:32;9.80;99.90
21019;DHT22;10667;51.056;3.732;2023-02-02T09:34:58;9.90;99.90
21019;DHT22;10667;51.056;3.732;2023-02-02T09:37:25;9.90;99.90
21019;DHT22;10667;51.056;3.732;2023-02-02T09:39:51;9.80;99.90
21019;DHT22;10667;51.056;3.732;2023-02-02T09:42:23;9.80;99.90
21019;DHT22;10667;51.056;3.732;2023-02-02T09:45:01;9.80;99.90
21019;DHT22;10667;51.056;3.732;2023-02-02T09:53:07;9.80;99.90
21019;DHT22;10667;51.056;3.732;2023-02-02T09:55:40;9.80;99.90
21019;DHT22;10667;51.056;3.732;2023-02-02T10:00:55;9.80;99.90
21019;DHT22;10667;51.056;3.732;2023-02-02T10:04:03;9.80;99.90
21019;DHT22;10667;51.056;3.732;2023-02-02T10:06:42;9.90;99.90
21019;DHT22;10667;51.056;3.732;2023-02-02T10:09:38;10.10;99.90
21019;DHT22;10667;51.056;3.732;2023-02-02T10:15:20;10.40;99.90
21019;DHT22;10667;51.056;3.732;2023-02-02T10:18:17;10.30;99.90
21019;DHT22;10667;51.056;3.732;2023-02-02T10:20:52;10.20;99.90
21019;DHT22;10667;51.056;3.732;2023-02-02T10:28:29;10.20;99.90
21019;DHT22;10667;51.056;3.732;2023-02-02T10:31:00;10.10;99.90
21019;DHT22;10667;51.056;3.732;2023-02-02T10:33:37;10.10;99.90
21019;DHT22;10667;51.056;3.732;2023-02-02T10:36:13;10.20;99.90
21019;DHT22;10667;51.056;3.732;2023-02-02T10:38:59;10.30;99.90
21019;DHT22;10667;51.056;3.732;2023-02-02T10:42:29;10.40;99.90
21019;DHT22;10667;51.056;3.732;2023-02-02T10:44:39;10.40;99.90
21019;DHT22;10667;51.056;3.732;2023-02-02T10:47:11;10.40;99.90
21019;DHT22;10667;51.056;3.732;2023-02-02T10:49:39;10.40;99.90
21019;DHT22;10667;51.056;3.732;2023-02-02T10:52:17;10.50;99.90
21019;DHT22;10667;51.056;3.732;2023-02-02T11:03:01;10.50;99.90
21019;DHT22;10667;51.056;3.732;2023-02-02T11:05:29;10.40;99.90
21019;DHT22;10667;51.056;3.732;2023-02-02T11:10:53;10.50;99.90
21019;DHT22;10667;51.056;3.732;2023-02-02T11:13:30;10.70;99.90
21019;DHT22;10667;51.056;3.732;2023-02-02T11:18:42;10.60;99.90
21019;DHT22;10667;51.056;3.732;2023-02-02T11:21:27;10.70;99.90
21019;DHT22;10667;51.056;3.732;2023-02-02T11:24:31;10.70;99.90
21019;DHT22;10667;51.056;3.732;2023-02-02T11:27:11;10.90;99.90
21019;DHT22;10667;51.056;3.732;2023-02-02T11:37:30;11.00;99.90
21019;DHT22;10667;51.056;3.732;2023-02-02T11:42:58;11.20;99.90
21019;DHT22;10667;51.056;3.732;2023-02-02T11:45:36;11.30;99.90
21019;DHT22;10667;51.056;3.732;2023-02-02T11:50:31;11.20;99.90
21019;DHT22;10667;51.056;3.732;2023-02-02T11:52:57;11.30;99.90
21019;DHT22;10667;51.056;3.732;2023-02-02T11:55:27;11.60;99.90
21019;DHT22;10667;51.056;3.732;2023-02-02T11:58:45;11.70;99.90
21019;DHT22;10667;51.056;3.732;2023-02-02T12:01:35;11.80;99.90
21019;DHT22;10667;51.056;3.732;2023-02-02T12:06:41;11.90;99.90
21019;DHT22;10667;51.056;3.732;2023-02-02T12:09:19;11.90;99.90
21019;DHT22;10667;51.056;3.732;2023-02-02T12:27:46;11.90;99.90
21019;DHT22;10667;51.056;3.732;2023-02-02T12:42:11;11.90;99.90
21019;DHT22;10667;51.056;3.732;2023-02-02T12:47:28;11.70;99.90
21019;DHT22;10667;51.056;3.732;2023-02-02T12:53:16;11.90;99.90
21019;DHT22;10667;51.056;3.732;2023-02-02T13:04:27;12.10;99.90
21019;DHT22;10667;51.056;3.732;2023-02-02T13:12:07;11.90;99.90
21019;DHT22;10667;51.056;3.732;2023-02-02T13:14:44;11.90;99.90
21019;DHT22;10667;51.056;3.732;2023-02-02T13:17:16;12.10;99.90
21019;DHT22;10667;51.056;3.732;2023-02-02T13:19:52;12.20;99.90
21019;DHT22;10667;51.056;3.732;2023-02-02T13:22:27;12.00;99.90
21019;DHT22;10667;51.056;3.732;2023-02-02T13:24:58;12.10;99.90
21019;DHT22;10667;51.056;3.732;2023-02-02T13:27:24;12.00;99.90
21019;DHT22;10667;51.056;3.732;2023-02-02T13:29:52;11.80;99.90
21019;DHT22;10667;51.056;3.732;2023-02-02T13:32:40;11.70;99.90
21019;DHT22;10667;51.056;3.732;2023-02-02T13:40:38;11.60;99.90
21019;DHT22;10667;51.056;3.732;2023-02-02T13:46:44;11.50;99.90
21019;DHT22;10667;51.056;3.732;2023-02-02T14:02:33;11.70;99.90
21019;DHT22;10667;51.056;3.732;2023-02-02T14:05:04;11.80;99.90
21019;DHT22;10667;51.056;3.732;2023-02-02T14:07:44;11.80;99.90
21019;DHT22;10667;51.056;3.732;2023-02-02T14:10:23;11.80;99.90
21019;DHT22;10667;51.056;3.732;2023-02-02T14:12:50;11.90;99.90
21019;DHT22;10667;51.056;3.732;2023-02-02T14:15:16;11.70;99.90
21019;DHT22;10667;51.056;3.732;2023-02-02T14:20:40;11.80;99.90
21019;DHT22;10667;51.056;3.732;2023-02-02T14:26:10;11.80;99.90
21019;DHT22;10667;51.056;3.732;2023-02-02T14:28:41;12.00;99.90
21019;DHT22;10667;51.056;3.732;2023-02-02T14:32:02;11.90;99.90
21019;DHT22;10667;51.056;3.732;2023-02-02T14:37:13;11.80;99.90
21019;DHT22;10667;51.056;3.732;2023-02-02T14:45:40;12.00;99.90
21019;DHT22;10667;51.056;3.732;2023-02-02T14:48:19;12.00;99.90
21019;DHT22;10667;51.056;3.732;2023-02-02T14:50:52;12.00;99.90
21019;DHT22;10667;51.056;3.732;2023-02-02T14:53:22;11.90;99.90
21019;DHT22;10667;51.056;3.732;2023-02-02T14:55:53;11.90;99.90
21019;DHT22;10667;51.056;3.732;2023-02-02T14:58:32;11.90;99.90
21019;DHT22;10667;51.056;3.732;2023-02-02T15:06:49;11.80;99.90
21019;DHT22;10667;51.056;3.732;2023-02-02T15:14:34;11.60;99.90
21019;DHT22;10667;51.056;3.732;2023-02-02T15:17:05;11.60;99.90
21019;DHT22;10667;51.056;3.732;2023-02-02T15:19:37;11.80;99.90
21019;DHT22;10667;51.056;3.732;2023-02-02T15:22:31;11.80;99.90
21019;DHT22;10667;51.056;3.732;2023-02-02T15:25:15;11.80;99.90
21019;DHT22;10667;51.056;3.732;2023-02-02T15:27:45;11.70;99.90
21019;DHT22;10667;51.056;3.732;2023-02-02T15:30:15;11.80;99.90
21019;DHT22;10667;51.056;3.732;2023-02-02T15:32:42;11.50;99.90
21019;DHT22;10667;51.056;3.732;2023-02-02T15:35:22;11.60;99.90
21019;DHT22;10667;51.056;3.732;2023-02-02T15:37:57;11.60;99.90
21019;DHT22;10667;51.056;3.732;2023-02-02T15:40:25;11.60;99.90
21019;DHT22;10667;51.056;3.732;2023-02-02T15:43:07;11.70;99.90
21019;DHT22;10667;51.056;3.732;2023-02-02T15:48:20;11.70;99.90
21019;DHT22;10667;51.056;3.732;2023-02-02T15:50:49;11.60;99.90
21019;DHT22;10667;51.056;3.732;2023-02-02T15:55:53;11.60;99.90
21019;DHT22;10667;51.056;3.732;2023-02-02T15:58:22;11.40;99.90
21019;DHT22;10667;51.056;3.732;2023-02-02T16:00:59;11.50;99.90
21019;DHT22;10667;51.056;3.732;2023-02-02T16:04:09;11.50;99.90
21019;DHT22;10667;51.056;3.732;2023-02-02T16:06:21;11.50;99.90
21019;DHT22;10667;51.056;3.732;2023-02-02T16:08:48;11.50;99.90
21019;DHT22;10667;51.056;3.732;2023-02-02T16:11:16;11.50;99.90
21019;DHT22;10667;51.056;3.732;2023-02-02T16:14:00;11.50;99.90
21019;DHT22;10667;51.056;3.732;2023-02-02T16:16:32;11.40;99.90
21019;DHT22;10667;51.056;3.732;2023-02-02T16:21:45;11.30;99.90
21019;DHT22;10667;51.056;3.732;2023-02-02T16:24:19;11.50;99.90
21019;DHT22;10667;51.056;3.732;2023-02-02T16:26:45;11.40;99.90
21019;DHT22;10667;51.056;3.732;2023-02-02T16:29:12;11.30;99.90
21019;DHT22;10667;51.056;3.732;2023-02-02T16:31:47;11.20;99.90
21019;DHT22;10667;51.056;3.732;2023-02-02T16:34:15;11.10;99.90
21019;DHT22;10667;51.056;3.732;2023-02-02T16:36:41;11.20;99.90
21019;DHT22;10667;51.056;3.732;2023-02-02T16:39:14;11.10;99.90
21019;DHT22;10667;51.056;3.732;2023-02-02T16:41:40;11.20;99.90
21019;DHT22;10667;51.056;3.732;2023-02-02T16:44:41;11.20;99.90
21019;DHT22;10667;51.056;3.732;2023-02-02T16:50:37;11.10;99.90
21019;DHT22;10667;51.056;3.732;2023-02-02T16:53:02;11.10;99.90
21019;DHT22;10667;51.056;3.732;2023-02-02T16:55:31;11.20;99.90
21019;DHT22;10667;51.056;3.732;2023-02-02T16:57:58;11.10;99.90
21019;DHT22;10667;51.056;3.732;2023-02-02T17:00:28;11.10;99.90
21019;DHT22;10667;51.056;3.732;2023-02-02T17:03:06;11.00;99.90
21019;DHT22;10667;51.056;3.732;2023-02-02T17:05:48;10.90;99.90
21019;DHT22;10667;51.056;3.732;2023-02-02T17:08:35;10.90;99.90
21019;DHT22;10667;51.056;3.732;2023-02-02T17:13:48;10.80;99.90
21019;DHT22;10667;51.056;3.732;2023-02-02T17:16:18;10.70;99.90
21019;DHT22;10667;51.056;3.732;2023-02-02T17:18:44;10.60;99.90
21019;DHT22;10667;51.056;3.732;2023-02-02T17:21:16;10.60;99.90
21019;DHT22;10667;51.056;3.732;2023-02-02T17:23:43;10.60;99.90
21019;DHT22;10667;51.056;3.732;2023-02-02T17:26:10;10.60;99.90
21019;DHT22;10667;51.056;3.732;2023-02-02T17:28:38;10.50;99.90
21019;DHT22;10667;51.056;3.732;2023-02-02T17:31:14;10.40;99.90
21019;DHT22;10667;51.056;3.732;2023-02-02T17:33:40;10.40;99.90
21019;DHT22;10667;51.056;3.732;2023-02-02T17:36:08;10.30;99.90
21019;DHT22;10667;51.056;3.732;2023-02-02T17:38:34;10.30;99.90
21019;DHT22;10667;51.056;3.732;2023-02-02T17:41:01;10.30;99.90
21019;DHT22;10667;51.056;3.732;2023-02-02T17:43:28;10.30;99.90
21019;DHT22;10667;51.056;3.732;2023-02-02T17:45:54;10.30;99.90
21019;DHT22;10667;51.056;3.732;2023-02-02T17:48:20;10.20;99.90
21019;DHT22;10667;51.056;3.732;2023-02-02T17:50:46;10.10;99.90
21019;DHT22;10667;51.056;3.732;2023-02-02T17:53:14;10.10;99.90
21019;DHT22;10667;51.056;3.732;2023-02-02T17:55:41;10.20;99.90
21019;DHT22;10667;51.056;3.732;2023-02-02T17:58:08;10.20;99.90
21019;DHT22;10667;51.056;3.732;2023-02-02T18:00:34;10.20;99.90
21019;DHT22;10667;51.056;3.732;2023-02-02T18:03:14;10.20;99.90
21019;DHT22;10667;51.056;3.732;2023-02-02T18:05:42;10.20;99.90
21019;DHT22;10667;51.056;3.732;2023-02-02T18:08:11;10.30;99.90
21019;DHT22;10667;51.056;3.732;2023-02-02T18:10:38;10.30;99.90
21019;DHT22;10667;51.056;3.732;2023-02-02T18:13:04;10.30;99.90
21019;DHT22;10667;51.056;3.732;2023-02-02T18:15:29;10.20;99.90
21019;DHT22;10667;51.056;3.732;2023-02-02T18:17:56;10.30;99.90
21019;DHT22;10667;51.056;3.732;2023-02-02T18:20:21;10.30;99.90
21019;DHT22;10667;51.056;3.732;2023-02-02T18:22:50;10.40;99.90
21019;DHT22;10667;51.056;3.732;2023-02-02T18:25:16;10.30;99.90
21019;DHT22;10667;51.056;3.732;2023-02-02T18:27:41;10.30;99.90
21019;DHT22;10667;51.056;3.732;2023-02-02T18:30:08;10.40;99.90
21019;DHT22;10667;51.056;3.732;2023-02-02T18:32:38;10.30;99.90
21019;DHT22;10667;51.056;3.732;2023-02-02T18:35:05;10.40;99.90
21019;DHT22;10667;51.056;3.732;2023-02-02T18:37:33;10.30;99.90
21019;DHT22;10667;51.056;3.732;2023-02-02T18:39:59;10.40;99.90
21019;DHT22;10667;51.056;3.732;2023-02-02T18:42:25;10.40;99.90
21019;DHT22;10667;51.056;3.732;2023-02-02T18:44:56;10.50;99.90
21019;DHT22;10667;51.056;3.732;2023-02-02T18:47:22;10.60;99.90
21019;DHT22;10667;51.056;3.732;2023-02-02T18:49:48;10.60;99.90
21019;DHT22;10667;51.056;3.732;2023-02-02T18:52:13;10.70;99.90
21019;DHT22;10667;51.056;3.732;2023-02-02T18:54:40;10.90;99.90
21019;DHT22;10667;51.056;3.732;2023-02-02T18:57:06;10.90;99.90
21019;DHT22;10667;51.056;3.732;2023-02-02T18:59:31;10.90;99.90
21019;DHT22;10667;51.056;3.732;2023-02-02T19:01:58;11.00;99.90